Time;durP1;ratioP1;P1;durP2;ratioP2;P2;SDS_P1;SDS_P2;PMS_P1;PMS_P2;Temp;Humidity;BMP_temperature;BMP_pressure;BME280_temperature;BME280_humidity;BME280_pressure;Samples;Min_cycle;Max_cycle;Signal;HPM_P1;HPM_P2
2021/12/30 00:00:34;;;;;;;37.80;6.25;;;10.10;99.90;;;;;;5002011;28;20836;-88
2021/12/30 00:03:00;;;;;;;32.78;6.15;;;10.10;99.90;;;;;;4983000;28;20048;-87
2021/12/30 00:05:26;;;;;;;36.60;6.30;;;10.00;99.90;;;;;;5005332;28;20426;-87
2021/12/30 00:07:52;;;;;;;41.10;6.68;;;10.00;99.90;;;;;;5004859;28;20327;-88
2021/12/30 00:10:18;;;;;;;35.58;6.72;;;10.00;99.90;;;;;;4968782;28;20079;-88
2021/12/30 00:12:43;;;;;;;37.88;6.47;;;10.00;99.90;;;;;;4959204;28;20055;-88
2021/12/30 00:15:10;;;;;;;40.53;6.63;;;9.90;99.90;;;;;;4989182;28;20040;-89
2021/12/30 00:17:36;;;;;;;37.90;6.43;;;9.90;99.90;;;;;;5006022;28;20102;-87
2021/12/30 00:20:04;;;;;;;36.40;6.78;;;9.90;99.90;;;;;;4981858;28;21176;-88
2021/12/30 00:22:30;;;;;;;34.78;6.85;;;9.80;99.90;;;;;;5002934;28;20132;-86
2021/12/30 00:24:56;;;;;;;33.70;6.13;;;9.80;99.90;;;;;;4981395;28;20040;-88
2021/12/30 00:27:22;;;;;;;42.90;6.63;;;9.80;99.90;;;;;;4978345;28;20156;-87
2021/12/30 00:29:47;;;;;;;45.40;7.32;;;9.80;99.90;;;;;;4982106;28;20507;-88
2021/12/30 00:32:13;;;;;;;33.30;6.28;;;9.80;99.90;;;;;;4979540;28;20492;-88
2021/12/30 00:34:39;;;;;;;31.50;5.85;;;9.80;99.90;;;;;;4969800;28;20054;-89
2021/12/30 00:37:05;;;;;;;41.60;6.70;;;9.70;99.90;;;;;;4986482;28;20047;-88
2021/12/30 00:39:31;;;;;;;36.03;6.75;;;9.70;99.90;;;;;;4982524;28;20063;-89
2021/12/30 00:41:56;;;;;;;39.75;6.68;;;9.70;99.90;;;;;;5009507;28;20055;-88
2021/12/30 00:44:22;;;;;;;35.75;6.38;;;9.70;99.90;;;;;;5004394;28;20649;-89
2021/12/30 00:46:48;;;;;;;36.30;6.25;;;9.60;99.90;;;;;;4991892;28;20449;-88
2021/12/30 00:49:14;;;;;;;36.35;6.75;;;9.60;99.90;;;;;;4993929;28;20689;-87
2021/12/30 00:51:41;;;;;;;45.33;6.40;;;9.60;99.90;;;;;;5005648;28;20063;-87
2021/12/30 00:54:07;;;;;;;34.38;6.43;;;9.60;99.90;;;;;;4993669;28;20043;-89
2021/12/30 00:56:33;;;;;;;42.63;7.10;;;9.50;99.90;;;;;;5028191;28;20044;-88
2021/12/30 00:58:59;;;;;;;36.22;7.20;;;9.50;99.90;;;;;;5002065;28;20426;-87
2021/12/30 01:01:25;;;;;;;35.13;6.30;;;9.50;99.90;;;;;;4978901;28;20054;-87
2021/12/30 01:03:53;;;;;;;35.65;6.28;;;9.50;99.90;;;;;;5007057;28;20048;-86
2021/12/30 01:06:19;;;;;;;38.70;7.20;;;9.40;99.90;;;;;;4990387;28;20047;-88
2021/12/30 01:08:45;;;;;;;35.75;6.60;;;9.50;99.90;;;;;;5002811;28;20863;-88
2021/12/30 01:11:12;;;;;;;38.88;7.03;;;9.40;99.90;;;;;;4998229;28;20047;-88
2021/12/30 01:13:42;;;;;;;37.75;7.30;;;9.40;99.90;;;;;;4998429;28;20097;-86
2021/12/30 01:16:18;;;;;;;43.05;7.32;;;9.40;99.90;;;;;;5005681;28;20124;-88
2021/12/30 01:19:04;;;;;;;37.42;6.60;;;9.40;99.90;;;;;;5023750;28;20067;-88
2021/12/30 01:21:32;;;;;;;38.88;7.25;;;9.30;99.90;;;;;;5020228;28;20890;-90
2021/12/30 01:24:01;;;;;;;37.70;7.03;;;9.40;99.90;;;;;;5018829;28;20089;-87
2021/12/30 01:26:27;;;;;;;41.60;7.03;;;9.30;99.90;;;;;;4996697;28;20134;-88
2021/12/30 01:28:55;;;;;;;36.80;6.85;;;9.40;99.90;;;;;;4997849;28;20546;-90
2021/12/30 01:31:21;;;;;;;37.25;6.47;;;9.40;99.90;;;;;;4997581;28;20958;-88
2021/12/30 01:33:50;;;;;;;44.97;7.70;;;9.30;99.90;;;;;;4991016;28;20214;-88
2021/12/30 01:36:16;;;;;;;34.70;6.10;;;9.10;99.90;;;;;;5025842;28;20052;-88
2021/12/30 01:38:45;;;;;;;34.33;6.80;;;9.10;99.90;;;;;;5005641;28;20749;-89
2021/12/30 01:41:11;;;;;;;39.97;7.03;;;9.00;99.90;;;;;;5006973;28;20344;-89
2021/12/30 01:43:37;;;;;;;42.90;6.72;;;9.10;99.90;;;;;;4973069;28;20476;-88
2021/12/30 01:46:08;;;;;;;40.88;7.43;;;9.00;99.90;;;;;;4983212;28;20694;-88
2021/12/30 01:48:37;;;;;;;33.78;6.45;;;9.00;99.90;;;;;;4984877;28;20047;-89
2021/12/30 01:51:05;;;;;;;45.47;6.85;;;8.90;99.90;;;;;;4989783;28;20044;-89
2021/12/30 01:53:31;;;;;;;42.35;7.20;;;8.80;99.90;;;;;;4997135;28;20726;-90
2021/12/30 01:55:57;;;;;;;36.35;6.97;;;8.70;99.90;;;;;;4968599;28;20048;-88
2021/12/30 01:58:23;;;;;;;38.42;6.90;;;8.70;99.90;;;;;;4985923;28;20813;-89
2021/12/30 02:00:51;;;;;;;39.13;6.97;;;8.80;99.90;;;;;;4981409;28;20040;-89
2021/12/30 02:03:18;;;;;;;38.92;8.18;;;9.00;99.90;;;;;;4984588;28;20039;-89
2021/12/30 02:05:44;;;;;;;42.30;8.25;;;9.10;99.90;;;;;;5003745;28;20371;-89
2021/12/30 02:08:14;;;;;;;47.38;8.65;;;9.30;99.90;;;;;;4973871;28;20051;-88
2021/12/30 02:10:41;;;;;;;41.13;8.43;;;9.20;99.90;;;;;;4985407;28;20050;-88
2021/12/30 02:13:11;;;;;;;50.35;9.02;;;9.30;99.90;;;;;;4979409;28;20051;-88
2021/12/30 02:15:38;;;;;;;53.00;9.88;;;9.40;99.90;;;;;;4953497;28;20075;-88
2021/12/30 02:18:04;;;;;;;46.30;9.38;;;9.40;99.90;;;;;;4971091;28;20493;-87
2021/12/30 02:20:45;;;;;;;53.53;10.52;;;9.50;99.90;;;;;;4987306;28;20151;-90
2021/12/30 02:23:23;;;;;;;56.55;12.07;;;9.50;99.90;;;;;;4965312;28;21215;-89
2021/12/30 02:25:52;;;;;;;47.53;11.07;;;9.50;99.90;;;;;;4975214;28;20036;-89
2021/12/30 02:28:23;;;;;;;50.80;12.20;;;9.60;99.90;;;;;;4973566;28;20050;-89
2021/12/30 02:30:50;;;;;;;56.47;13.00;;;9.60;99.90;;;;;;4976057;28;20044;-87
2021/12/30 02:33:17;;;;;;;52.85;12.48;;;9.70;99.90;;;;;;4971844;28;20150;-88
2021/12/30 02:35:42;;;;;;;51.75;12.95;;;9.70;99.90;;;;;;4962517;28;20062;-88
2021/12/30 02:38:09;;;;;;;54.30;13.60;;;9.80;99.90;;;;;;4960416;28;20628;-89
2021/12/30 02:40:41;;;;;;;40.75;12.93;;;9.80;99.90;;;;;;4963882;28;20131;-90
2021/12/30 02:43:13;;;;;;;49.60;15.45;;;9.80;99.90;;;;;;4966162;28;20051;-87
2021/12/30 02:45:39;;;;;;;49.45;14.68;;;9.90;99.90;;;;;;4966098;28;20101;-89
2021/12/30 02:48:10;;;;;;;51.38;15.07;;;9.90;99.90;;;;;;4951614;28;20048;-89
2021/12/30 02:50:36;;;;;;;38.95;14.25;;;9.90;99.90;;;;;;4955808;28;20055;-88
2021/12/30 02:53:02;;;;;;;55.83;14.80;;;10.00;99.90;;;;;;4954878;28;20071;-88
2021/12/30 02:55:28;;;;;;;54.97;15.02;;;10.00;99.90;;;;;;4953384;28;20044;-88
2021/12/30 02:57:54;;;;;;;47.42;13.85;;;10.00;99.90;;;;;;4942444;28;20043;-88
2021/12/30 03:00:20;;;;;;;48.50;14.30;;;10.00;99.90;;;;;;4957794;28;20043;-88
2021/12/30 03:02:45;;;;;;;48.78;14.25;;;10.00;99.90;;;;;;4952450;28;20537;-89
2021/12/30 03:05:15;;;;;;;53.55;14.88;;;10.00;99.90;;;;;;4939997;28;20104;-89
2021/12/30 03:07:41;;;;;;;54.85;15.18;;;10.00;99.90;;;;;;4990283;28;20078;-88
2021/12/30 03:10:17;;;;;;;52.50;14.77;;;10.00;99.90;;;;;;4987084;28;20741;-87
2021/12/30 03:12:43;;;;;;;47.00;15.40;;;10.00;99.90;;;;;;4989980;28;20135;-90
2021/12/30 03:15:16;;;;;;;51.42;15.95;;;10.00;99.90;;;;;;5006606;28;20119;-88
2021/12/30 03:17:41;;;;;;;50.58;16.73;;;10.00;99.90;;;;;;4967334;28;20071;-86
2021/12/30 03:20:09;;;;;;;52.80;16.90;;;10.00;99.90;;;;;;4964938;28;20794;-89
2021/12/30 03:22:37;;;;;;;57.17;17.33;;;10.10;99.90;;;;;;4958103;28;20083;-89
2021/12/30 03:25:08;;;;;;;51.15;17.30;;;10.00;99.90;;;;;;4968325;28;20207;-89
2021/12/30 03:27:35;;;;;;;52.50;17.67;;;10.10;99.90;;;;;;4959173;28;20127;-89
2021/12/30 03:30:03;;;;;;;51.60;17.48;;;10.10;99.90;;;;;;4990614;28;20063;-88
2021/12/30 03:32:29;;;;;;;55.88;17.92;;;10.10;99.90;;;;;;4989839;28;20052;-89
2021/12/30 03:34:55;;;;;;;54.13;17.70;;;10.10;99.90;;;;;;4944919;28;20138;-89
2021/12/30 03:37:21;;;;;;;54.70;17.95;;;10.10;99.90;;;;;;4987623;28;20044;-89
2021/12/30 03:39:48;;;;;;;53.15;18.08;;;10.10;99.90;;;;;;4944930;28;1618578;-90
2021/12/30 03:42:15;;;;;;;53.17;18.33;;;10.10;99.90;;;;;;5001418;28;20060;-90
2021/12/30 03:44:42;;;;;;;52.88;17.83;;;10.10;99.90;;;;;;5000531;28;20059;-89
2021/12/30 03:47:12;;;;;;;52.40;17.30;;;10.10;99.90;;;;;;5011182;28;20597;-89
2021/12/30 03:49:38;;;;;;;58.13;18.25;;;10.10;99.90;;;;;;4978107;28;20817;-90
2021/12/30 03:52:04;;;;;;;57.88;18.42;;;10.10;99.90;;;;;;4991603;28;20051;-90
2021/12/30 03:54:30;;;;;;;55.45;18.63;;;10.10;99.90;;;;;;4975849;28;20047;-89
2021/12/30 03:56:56;;;;;;;64.47;19.80;;;10.10;99.90;;;;;;4996997;28;20047;-89
2021/12/30 03:59:22;;;;;;;57.65;18.80;;;10.20;99.90;;;;;;4970301;28;20048;-91
2021/12/30 04:01:48;;;;;;;58.20;21.20;;;10.30;99.90;;;;;;4982673;28;20048;-90
2021/12/30 04:04:14;;;;;;;58.13;20.98;;;10.30;99.90;;;;;;4961701;28;20047;-88
2021/12/30 04:06:39;;;;;;;59.78;21.30;;;10.30;99.90;;;;;;4964067;28;20796;-90
2021/12/30 04:09:06;;;;;;;58.33;20.65;;;10.30;99.90;;;;;;4983911;28;20043;-90
2021/12/30 04:11:34;;;;;;;54.85;19.92;;;10.30;99.90;;;;;;4981691;28;20040;-89
2021/12/30 04:14:02;;;;;;;61.88;21.02;;;10.30;99.90;;;;;;4996031;28;20051;-88
2021/12/30 04:16:28;;;;;;;58.67;21.40;;;10.40;99.90;;;;;;4996460;28;20468;-88
2021/12/30 04:18:54;;;;;;;59.55;20.73;;;10.40;99.90;;;;;;4994860;28;20846;-89
2021/12/30 04:21:21;;;;;;;56.60;20.50;;;10.50;99.90;;;;;;4977536;28;20043;-89
2021/12/30 04:23:47;;;;;;;68.82;20.90;;;10.50;99.90;;;;;;4999524;28;20054;-89
2021/12/30 04:26:13;;;;;;;60.33;20.48;;;10.50;99.90;;;;;;5026166;28;20063;-89
2021/12/30 04:28:39;;;;;;;65.72;20.85;;;10.60;99.90;;;;;;4968237;28;20436;-89
2021/12/30 04:31:05;;;;;;;61.33;20.98;;;10.60;99.90;;;;;;4965366;28;20545;-89
2021/12/30 04:33:31;;;;;;;66.28;20.77;;;10.70;99.90;;;;;;4982644;28;20067;-88
2021/12/30 04:35:57;;;;;;;65.68;21.10;;;10.70;99.90;;;;;;4974838;28;20054;-89
2021/12/30 04:38:24;;;;;;;63.80;20.65;;;10.80;99.90;;;;;;4979578;28;20053;-88
2021/12/30 04:40:51;;;;;;;66.03;19.88;;;10.80;99.90;;;;;;4996656;28;20047;-88
2021/12/30 04:43:17;;;;;;;63.42;20.23;;;10.80;99.90;;;;;;4996589;28;20516;-88
2021/12/30 04:45:43;;;;;;;65.18;20.45;;;10.90;99.90;;;;;;5002595;28;20059;-87
2021/12/30 04:48:10;;;;;;;65.55;20.60;;;10.90;99.90;;;;;;4985582;28;20074;-89
2021/12/30 04:50:36;;;;;;;54.83;19.65;;;10.90;99.90;;;;;;4988543;28;20403;-88
2021/12/30 04:53:02;;;;;;;64.13;20.33;;;11.00;99.90;;;;;;4983712;28;20414;-90
2021/12/30 04:55:28;;;;;;;64.78;20.65;;;11.00;99.90;;;;;;5012087;28;20044;-88
2021/12/30 04:57:57;;;;;;;71.10;22.25;;;11.10;99.90;;;;;;4991742;28;20820;-88
2021/12/30 05:00:23;;;;;;;64.57;22.05;;;11.00;99.90;;;;;;4984914;28;20213;-87
2021/12/30 05:05:24;;;;;;;69.88;21.73;;;11.10;99.90;;;;;;4982512;28;20908;-90
2021/12/30 05:07:50;;;;;;;74.05;22.65;;;11.20;99.90;;;;;;4976253;28;20123;-88
2021/12/30 05:10:16;;;;;;;75.00;23.17;;;11.20;99.90;;;;;;4989215;28;20043;-89
2021/12/30 05:12:42;;;;;;;70.28;23.75;;;11.20;99.90;;;;;;4994401;28;20338;-87
2021/12/30 05:15:10;;;;;;;70.85;22.65;;;11.20;99.90;;;;;;4984098;28;20043;-88
2021/12/30 05:17:36;;;;;;;75.78;24.25;;;11.20;99.90;;;;;;4995191;28;20906;-88
2021/12/30 05:20:03;;;;;;;65.88;22.88;;;11.30;99.90;;;;;;4993222;28;20040;-89
2021/12/30 05:22:29;;;;;;;68.00;22.55;;;11.30;99.90;;;;;;4999054;28;20146;-89
2021/12/30 05:24:55;;;;;;;75.05;23.23;;;11.30;99.90;;;;;;4981746;28;20468;-88
2021/12/30 05:27:20;;;;;;;65.78;22.52;;;11.30;99.90;;;;;;4993245;28;20044;-88
2021/12/30 05:29:47;;;;;;;63.35;22.75;;;11.30;99.90;;;;;;4977708;28;20497;-89
2021/12/30 05:32:13;;;;;;;80.25;24.30;;;11.40;99.90;;;;;;4980892;28;20036;-88
2021/12/30 05:34:38;;;;;;;65.28;23.02;;;11.40;99.90;;;;;;5017734;28;20422;-89
2021/12/30 05:37:07;;;;;;;65.43;24.48;;;11.50;99.90;;;;;;4979371;28;20895;-89
2021/12/30 05:39:37;;;;;;;57.92;21.83;;;11.50;99.90;;;;;;5014052;28;20067;-88
2021/12/30 05:42:03;;;;;;;66.85;23.30;;;11.60;99.90;;;;;;4992801;28;20972;-88
2021/12/30 05:44:29;;;;;;;70.03;23.50;;;11.50;99.90;;;;;;4984505;28;21537;-90
2021/12/30 05:46:55;;;;;;;79.88;23.77;;;11.60;99.90;;;;;;4985253;28;20039;-89
2021/12/30 05:49:21;;;;;;;71.38;23.15;;;11.60;99.90;;;;;;4977180;28;21069;-89
2021/12/30 05:51:47;;;;;;;73.60;23.58;;;11.60;99.90;;;;;;4978635;28;20932;-89
2021/12/30 05:54:12;;;;;;;59.03;22.48;;;11.60;99.90;;;;;;4989119;28;20636;-87
2021/12/30 05:56:41;;;;;;;76.03;23.90;;;11.70;99.90;;;;;;4977325;28;20059;-90
2021/12/30 05:59:07;;;;;;;78.63;23.13;;;11.70;99.90;;;;;;4995671;28;20043;-91
2021/12/30 06:01:32;;;;;;;78.38;23.13;;;11.70;99.90;;;;;;4991387;28;20105;-89
2021/12/30 06:03:58;;;;;;;76.35;23.15;;;11.70;99.90;;;;;;4967881;28;20380;-87
2021/12/30 06:06:25;;;;;;;73.35;22.58;;;11.70;99.90;;;;;;5013286;28;20495;-88
2021/12/30 06:08:53;;;;;;;71.45;23.00;;;11.70;99.90;;;;;;4991124;28;20298;-90
2021/12/30 06:11:18;;;;;;;81.07;23.63;;;11.70;99.90;;;;;;5025536;28;20108;-91
2021/12/30 06:13:44;;;;;;;75.45;22.73;;;11.70;99.90;;;;;;4993722;28;20251;-88
2021/12/30 06:16:10;;;;;;;68.57;22.00;;;11.80;99.90;;;;;;4962720;28;20294;-88
2021/12/30 06:18:36;;;;;;;76.90;23.10;;;11.80;99.90;;;;;;4982087;28;20620;-89
2021/12/30 06:21:02;;;;;;;74.40;22.05;;;11.80;99.90;;;;;;4993212;28;20047;-90
2021/12/30 06:23:27;;;;;;;79.65;22.63;;;11.90;99.90;;;;;;4987338;28;20044;-90
2021/12/30 06:25:53;;;;;;;69.65;22.38;;;11.80;99.90;;;;;;4985384;28;20047;-89
2021/12/30 06:28:19;;;;;;;65.25;22.50;;;11.90;99.90;;;;;;4966773;28;20050;-88
2021/12/30 06:30:45;;;;;;;71.72;22.33;;;11.90;99.90;;;;;;4980751;28;20990;-88
2021/12/30 06:33:11;;;;;;;64.70;21.85;;;11.90;99.90;;;;;;4987021;28;21301;-89
2021/12/30 06:35:37;;;;;;;71.10;21.70;;;11.90;99.90;;;;;;4994054;28;20530;-88
2021/12/30 06:38:03;;;;;;;60.20;21.83;;;12.00;99.90;;;;;;4979622;28;20910;-87
2021/12/30 06:40:30;;;;;;;61.78;21.20;;;12.00;99.90;;;;;;4985583;28;20079;-88
2021/12/30 06:42:56;;;;;;;66.00;21.67;;;12.00;99.90;;;;;;4973595;28;20063;-87
2021/12/30 06:45:22;;;;;;;65.07;22.90;;;12.00;99.90;;;;;;5008748;28;20044;-89
2021/12/30 06:47:48;;;;;;;59.33;22.38;;;12.00;99.90;;;;;;4987088;28;20047;-88
2021/12/30 06:50:16;;;;;;;57.78;21.48;;;12.00;99.90;;;;;;4993587;28;20523;-88
2021/12/30 06:52:46;;;;;;;67.88;22.90;;;12.10;99.90;;;;;;5011429;28;20201;-87
2021/12/30 06:55:13;;;;;;;60.45;22.88;;;12.10;99.90;;;;;;4987269;28;20074;-88
2021/12/30 06:57:40;;;;;;;55.83;21.52;;;12.10;99.90;;;;;;4994832;28;20611;-87
2021/12/30 07:00:08;;;;;;;53.67;20.58;;;12.10;99.90;;;;;;4992647;28;20044;-89
2021/12/30 07:02:35;;;;;;;50.63;20.42;;;12.10;99.90;;;;;;5017359;28;20447;-90
2021/12/30 07:05:03;;;;;;;49.42;19.50;;;12.10;99.90;;;;;;5013517;28;20051;-89
2021/12/30 07:07:29;;;;;;;55.72;19.63;;;12.10;99.90;;;;;;4994977;28;20207;-89
2021/12/30 07:09:55;;;;;;;50.92;18.27;;;12.10;99.90;;;;;;4996670;28;20051;-91
2021/12/30 07:12:21;;;;;;;49.65;19.48;;;12.10;99.90;;;;;;4999291;28;20443;-88
2021/12/30 07:14:47;;;;;;;48.50;18.30;;;12.20;99.90;;;;;;4971596;28;20218;-87
2021/12/30 07:17:13;;;;;;;44.33;17.83;;;12.20;99.90;;;;;;4998888;28;20039;-88
2021/12/30 07:19:41;;;;;;;44.75;17.48;;;12.20;99.90;;;;;;4969583;28;21023;-88
2021/12/30 07:22:10;;;;;;;49.15;17.92;;;12.20;99.90;;;;;;4989700;28;20531;-90
2021/12/30 07:24:35;;;;;;;43.42;16.85;;;12.20;99.90;;;;;;4996865;28;20062;-87
2021/12/30 07:27:01;;;;;;;45.42;15.65;;;12.20;99.90;;;;;;5000757;28;20047;-89
2021/12/30 07:29:27;;;;;;;39.30;14.73;;;12.20;99.90;;;;;;4999884;28;20071;-89
2021/12/30 07:31:53;;;;;;;31.38;12.43;;;12.20;99.90;;;;;;4970752;28;20082;-92
2021/12/30 07:34:21;;;;;;;37.17;13.18;;;12.20;99.90;;;;;;5000449;28;21013;-90
2021/12/30 07:36:47;;;;;;;30.67;12.18;;;12.20;99.90;;;;;;4966507;28;20043;-92
2021/12/30 07:39:13;;;;;;;28.95;11.50;;;12.20;99.90;;;;;;4984578;28;20399;-91
2021/12/30 07:41:39;;;;;;;26.17;10.00;;;12.30;99.90;;;;;;4975367;28;20062;-92
2021/12/30 07:44:09;;;;;;;27.80;10.18;;;12.20;99.90;;;;;;4984286;28;20052;-92
2021/12/30 07:46:38;;;;;;;25.42;9.57;;;12.20;99.90;;;;;;4986784;28;20048;-90
2021/12/30 07:49:11;;;;;;;20.77;8.68;;;12.30;99.90;;;;;;4969152;28;20048;-87
2021/12/30 07:51:39;;;;;;;21.33;8.23;;;12.30;99.90;;;;;;4985786;28;20040;-91
2021/12/30 07:54:14;;;;;;;19.10;8.02;;;12.30;99.90;;;;;;4971808;28;20118;-91
2021/12/30 07:56:40;;;;;;;16.20;7.60;;;12.30;99.90;;;;;;4974284;28;20147;-90
2021/12/30 07:59:08;;;;;;;17.17;7.03;;;12.30;99.90;;;;;;4980685;28;20082;-90
2021/12/30 08:01:37;;;;;;;15.35;6.97;;;12.30;99.90;;;;;;4970101;28;20770;-91
2021/12/30 08:04:06;;;;;;;15.65;6.53;;;12.30;99.90;;;;;;4979812;28;20585;-88
2021/12/30 08:06:35;;;;;;;12.48;6.18;;;12.30;99.90;;;;;;4983592;28;20055;-92
2021/12/30 08:09:01;;;;;;;14.82;6.32;;;12.30;99.90;;;;;;4994206;28;20519;-91
2021/12/30 08:11:29;;;;;;;14.65;6.70;;;12.30;99.90;;;;;;4971972;28;20763;-91
2021/12/30 08:13:55;;;;;;;13.38;6.30;;;12.30;99.90;;;;;;4986531;28;20052;-94
2021/12/30 08:16:30;;;;;;;14.30;6.55;;;12.30;99.90;;;;;;4988116;28;20328;-94
2021/12/30 08:18:59;;;;;;;13.00;6.65;;;12.40;99.90;;;;;;5014292;28;20127;-95
2021/12/30 08:21:54;;;;;;;13.07;6.55;;;12.40;99.90;;;;;;4997779;28;20052;-94
2021/12/30 08:24:46;;;;;;;13.10;6.65;;;12.30;99.90;;;;;;5019382;28;20047;-95
2021/12/30 08:27:13;;;;;;;15.18;6.60;;;12.40;99.90;;;;;;5002176;28;20047;-92
2021/12/30 08:29:43;;;;;;;14.65;6.68;;;12.40;99.90;;;;;;4986314;28;20040;-93
2021/12/30 08:32:11;;;;;;;13.43;6.80;;;12.40;99.90;;;;;;5008189;28;20574;-93
2021/12/30 08:34:39;;;;;;;14.80;6.50;;;12.40;99.90;;;;;;4981544;28;20090;-90
2021/12/30 08:37:08;;;;;;;19.15;7.10;;;12.40;99.90;;;;;;5010710;28;20121;-94
2021/12/30 08:39:36;;;;;;;13.90;6.90;;;12.40;99.90;;;;;;4997264;28;20060;-94
2021/12/30 08:42:06;;;;;;;12.27;6.68;;;12.40;99.90;;;;;;5026946;28;20488;-91
2021/12/30 08:44:32;;;;;;;12.85;7.00;;;12.50;99.90;;;;;;5028087;28;20105;-93
2021/12/30 08:46:57;;;;;;;14.13;6.78;;;12.50;99.90;;;;;;5002147;28;20634;-92
2021/12/30 08:49:26;;;;;;;13.73;7.13;;;12.50;99.90;;;;;;5009733;28;20429;-90
2021/12/30 08:51:52;;;;;;;16.45;7.78;;;12.50;99.90;;;;;;4998247;28;20402;-89
2021/12/30 08:54:17;;;;;;;17.13;8.65;;;12.60;99.90;;;;;;5029625;28;20056;-89
2021/12/30 08:56:43;;;;;;;18.05;9.20;;;12.60;99.90;;;;;;4992033;28;20078;-87
2021/12/30 08:59:09;;;;;;;19.83;9.85;;;12.50;99.90;;;;;;4997579;28;20066;-91
2021/12/30 09:01:35;;;;;;;19.85;11.13;;;12.60;99.90;;;;;;4984678;28;20100;-89
2021/12/30 09:04:01;;;;;;;25.08;12.00;;;12.60;99.90;;;;;;4994000;28;20861;-88
2021/12/30 09:06:26;;;;;;;21.25;11.82;;;12.70;99.90;;;;;;4987543;28;20055;-90
2021/12/30 09:08:53;;;;;;;19.92;11.68;;;12.70;99.90;;;;;;4978901;28;20051;-87
2021/12/30 09:11:22;;;;;;;18.88;11.65;;;12.70;99.90;;;;;;4971301;28;20372;-89
2021/12/30 09:13:48;;;;;;;20.20;11.70;;;12.70;99.90;;;;;;5002240;28;20047;-88
2021/12/30 09:16:19;;;;;;;22.88;11.60;;;12.70;99.90;;;;;;4992251;28;20127;-94
2021/12/30 09:18:45;;;;;;;19.35;11.27;;;12.80;99.90;;;;;;5002068;28;20055;-88
2021/12/30 09:21:11;;;;;;;20.38;10.90;;;12.80;99.90;;;;;;4995450;28;20082;-88
2021/12/30 09:23:40;;;;;;;17.35;10.35;;;12.80;99.90;;;;;;5009476;28;20511;-93
2021/12/30 09:26:06;;;;;;;16.17;10.15;;;12.90;99.90;;;;;;4981835;28;20079;-92
2021/12/30 09:28:32;;;;;;;16.88;10.23;;;12.80;99.90;;;;;;4974578;28;20058;-88
2021/12/30 09:30:58;;;;;;;13.48;9.40;;;12.80;99.90;;;;;;4983283;28;20587;-88
2021/12/30 09:33:24;;;;;;;15.80;9.18;;;12.90;99.90;;;;;;4996925;28;20135;-89
2021/12/30 09:35:52;;;;;;;15.45;9.55;;;12.90;99.90;;;;;;4979555;28;20047;-86
2021/12/30 09:38:19;;;;;;;17.63;9.48;;;12.90;99.90;;;;;;4994971;28;20388;-89
2021/12/30 09:40:49;;;;;;;13.30;9.02;;;12.90;99.90;;;;;;4989017;28;20055;-90
2021/12/30 09:43:15;;;;;;;16.02;9.45;;;12.90;99.90;;;;;;4994896;28;20265;-86
2021/12/30 09:45:42;;;;;;;14.18;9.13;;;13.00;99.90;;;;;;4987125;28;20215;-86
2021/12/30 09:48:14;;;;;;;17.30;9.35;;;13.00;99.90;;;;;;4990985;28;20051;-86
2021/12/30 09:50:54;;;;;;;16.48;9.43;;;13.00;99.90;;;;;;4996756;28;20127;-86
2021/12/30 09:53:25;;;;;;;17.05;9.73;;;13.00;99.90;;;;;;4983629;28;20497;-88
2021/12/30 09:55:55;;;;;;;16.80;9.82;;;13.00;99.90;;;;;;4983052;28;20051;-84
2021/12/30 09:58:23;;;;;;;18.63;10.10;;;13.00;99.90;;;;;;4987303;28;20067;-87
2021/12/30 10:00:50;;;;;;;17.95;10.13;;;13.00;99.90;;;;;;5007262;28;20476;-84
2021/12/30 10:03:17;;;;;;;17.33;9.55;;;13.00;99.90;;;;;;5008103;28;20112;-87
2021/12/30 10:05:43;;;;;;;18.95;9.45;;;13.00;99.90;;;;;;4981534;28;20048;-87
2021/12/30 10:08:14;;;;;;;19.35;9.07;;;13.00;99.90;;;;;;4974046;28;20047;-85
2021/12/30 10:10:43;;;;;;;17.02;8.88;;;13.10;99.90;;;;;;5006110;28;20177;-88
2021/12/30 10:13:22;;;;;;;18.30;8.40;;;13.20;99.90;;;;;;4982271;28;20047;-88
2021/12/30 10:15:52;;;;;;;15.10;8.30;;;13.20;99.90;;;;;;4983386;28;21851;-88
2021/12/30 10:18:19;;;;;;;17.77;7.85;;;13.20;99.90;;;;;;5004295;28;20055;-87
2021/12/30 10:20:48;;;;;;;15.57;7.93;;;13.10;99.90;;;;;;4986671;28;20628;-85
2021/12/30 10:23:21;;;;;;;16.38;7.45;;;13.20;99.90;;;;;;4988172;28;20031;-87
2021/12/30 10:25:50;;;;;;;15.20;6.68;;;13.20;99.90;;;;;;5008538;28;20508;-87
2021/12/30 10:28:24;;;;;;;16.83;6.80;;;13.20;99.90;;;;;;5005473;28;20079;-87
2021/12/30 10:30:56;;;;;;;14.07;6.20;;;13.20;99.90;;;;;;5003081;28;20044;-87
2021/12/30 10:33:25;;;;;;;14.00;6.45;;;13.20;99.90;;;;;;5005473;28;20662;-85
2021/12/30 10:35:53;;;;;;;15.23;5.53;;;13.30;99.90;;;;;;5004569;28;20536;-87
2021/12/30 10:38:19;;;;;;;16.02;5.53;;;13.30;99.90;;;;;;5010456;28;21009;-85
2021/12/30 10:40:48;;;;;;;13.63;5.47;;;13.30;99.90;;;;;;5011237;28;21515;-85
2021/12/30 10:43:33;;;;;;;15.10;5.50;;;13.30;99.90;;;;;;4985339;28;20444;-88
2021/12/30 10:46:13;;;;;;;20.52;6.25;;;13.30;99.90;;;;;;5016989;28;22313;-87
2021/12/30 10:49:05;;;;;;;15.50;6.28;;;13.30;99.90;;;;;;5001465;28;20057;-86
2021/12/30 10:51:33;;;;;;;19.48;5.80;;;13.30;99.90;;;;;;5004170;28;20470;-88
2021/12/30 10:54:08;;;;;;;16.10;5.57;;;13.30;99.90;;;;;;5006411;28;20050;-87
2021/12/30 10:56:37;;;;;;;22.23;5.40;;;13.30;99.90;;;;;;5005942;28;20998;-87
2021/12/30 10:59:11;;;;;;;18.10;5.40;;;13.40;99.90;;;;;;5003092;28;20123;-86
2021/12/30 11:01:45;;;;;;;14.65;5.10;;;13.40;99.90;;;;;;5004501;28;20054;-88
2021/12/30 11:04:12;;;;;;;17.45;4.88;;;13.40;99.90;;;;;;4999705;28;20524;-86
2021/12/30 11:06:38;;;;;;;17.63;5.97;;;13.40;99.90;;;;;;4964238;28;20059;-88
2021/12/30 11:09:10;;;;;;;20.05;6.10;;;13.40;99.90;;;;;;4979328;28;20040;-86
2021/12/30 11:11:44;;;;;;;19.23;5.53;;;13.40;99.90;;;;;;4986241;28;20083;-87
2021/12/30 11:14:17;;;;;;;20.45;5.57;;;13.40;99.90;;;;;;4988328;28;20394;-87
2021/12/30 11:17:04;;;;;;;23.75;5.78;;;13.40;99.90;;;;;;4981930;28;20495;-86
2021/12/30 11:19:38;;;;;;;20.48;5.80;;;13.40;99.90;;;;;;4990243;28;20051;-89
2021/12/30 11:22:11;;;;;;;21.35;6.03;;;13.40;99.90;;;;;;5004635;28;20206;-86
2021/12/30 11:24:40;;;;;;;19.60;5.70;;;13.50;99.90;;;;;;5007127;28;20052;-87
2021/12/30 11:27:10;;;;;;;23.13;5.93;;;13.50;99.90;;;;;;4980058;28;20039;-89
2021/12/30 11:29:37;;;;;;;17.10;5.53;;;13.50;99.90;;;;;;4983481;28;20665;-90
2021/12/30 11:32:06;;;;;;;18.55;5.90;;;13.50;99.90;;;;;;5006858;28;20047;-91
2021/12/30 11:34:33;;;;;;;21.40;5.53;;;13.50;99.90;;;;;;4974305;28;20051;-89
2021/12/30 11:36:59;;;;;;;24.20;6.00;;;13.50;99.90;;;;;;5005782;28;20188;-87
2021/12/30 11:39:26;;;;;;;22.83;5.70;;;13.50;99.90;;;;;;4975339;28;20051;-86
2021/12/30 11:42:06;;;;;;;23.13;5.70;;;13.50;99.90;;;;;;4964797;28;20052;-84
2021/12/30 11:44:39;;;;;;;24.98;5.93;;;13.60;99.90;;;;;;4963301;28;20397;-85
2021/12/30 11:47:07;;;;;;;25.08;5.93;;;13.60;99.90;;;;;;4981796;28;20059;-87
2021/12/30 11:49:58;;;;;;;24.00;6.28;;;13.60;99.90;;;;;;4944081;28;20054;-84
2021/12/30 11:52:45;;;;;;;20.38;6.32;;;13.60;99.90;;;;;;4968400;28;20177;-85
2021/12/30 11:55:48;;;;;;;22.13;5.80;;;13.50;99.90;;;;;;4979825;28;20410;-87
2021/12/30 11:58:31;;;;;;;22.30;6.03;;;13.60;99.90;;;;;;4971823;28;20044;-86
2021/12/30 12:01:24;;;;;;;22.58;5.68;;;13.50;99.90;;;;;;4965208;28;20501;-87
2021/12/30 12:03:53;;;;;;;20.42;5.25;;;13.50;99.90;;;;;;4965773;28;20234;-85
2021/12/30 12:06:27;;;;;;;25.90;5.95;;;13.40;99.90;;;;;;4983582;28;20885;-87
2021/12/30 12:09:00;;;;;;;25.77;5.97;;;13.40;99.90;;;;;;4969022;28;20079;-85
2021/12/30 12:11:40;;;;;;;19.52;5.57;;;13.30;99.90;;;;;;4975197;28;20139;-86
2021/12/30 12:14:34;;;;;;;21.52;5.75;;;13.40;99.90;;;;;;5002067;28;20500;-86
2021/12/30 12:17:10;;;;;;;21.10;5.35;;;13.30;99.90;;;;;;4964791;28;20193;-89
2021/12/30 12:19:43;;;;;;;23.27;5.80;;;13.30;99.90;;;;;;4985684;28;21249;-85
2021/12/30 12:22:18;;;;;;;20.23;5.38;;;13.30;99.90;;;;;;4983996;28;20047;-88
2021/12/30 12:24:46;;;;;;;23.08;5.55;;;13.30;99.90;;;;;;4986113;28;20067;-86
2021/12/30 12:27:31;;;;;;;20.67;5.47;;;13.30;99.90;;;;;;4962748;28;20056;-89
2021/12/30 12:30:00;;;;;;;18.63;5.43;;;13.30;99.90;;;;;;4990864;28;20055;-86
2021/12/30 12:32:34;;;;;;;19.77;5.30;;;13.30;99.90;;;;;;4965077;28;20052;-88
2021/12/30 12:35:04;;;;;;;20.80;5.55;;;13.30;99.90;;;;;;4980051;28;20059;-87
2021/12/30 12:37:40;;;;;;;20.45;6.05;;;13.30;99.90;;;;;;4967745;28;20040;-86
2021/12/30 12:40:20;;;;;;;22.27;5.90;;;13.30;99.90;;;;;;4998184;28;20112;-87
2021/12/30 12:42:50;;;;;;;22.40;6.22;;;13.30;99.90;;;;;;4987421;28;20568;-85